createdAt,value
2023-01-21T00:00:23.017Z,69.24
2023-01-21T00:02:49.661Z,69.29
2023-01-21T00:05:16.341Z,69.12
2023-01-21T00:07:43.009Z,68.95
2023-01-21T00:10:10.282Z,69.14
2023-01-21T00:12:38.011Z,68.69
2023-01-21T00:15:05.068Z,68.74
2023-01-21T00:17:35.842Z,68.59
2023-01-21T00:20:04.074Z,69.22
2023-01-21T00:22:30.873Z,69.15
2023-01-21T00:24:57.545Z,69.31
2023-01-21T00:27:24.338Z,69.33
2023-01-21T00:29:51.001Z,68.52
2023-01-21T00:32:17.714Z,69.34
2023-01-21T00:34:44.393Z,69.75
2023-01-21T00:37:11.093Z,69.69
2023-01-21T00:39:42.645Z,70.13
2023-01-21T00:42:11.174Z,70.09
2023-01-21T00:44:38.554Z,70.50
2023-01-21T00:47:05.960Z,71.21
2023-01-21T00:49:32.719Z,71.41
2023-01-21T00:51:59.703Z,70.78
2023-01-21T00:54:26.350Z,71.10
2023-01-21T00:56:52.994Z,70.97
2023-01-21T00:59:19.800Z,71.40
2023-01-21T01:01:46.439Z,70.79
2023-01-21T01:04:13.491Z,70.50
2023-01-21T01:06:40.407Z,70.42
2023-01-21T01:09:07.588Z,70.40
2023-01-21T01:11:34.225Z,70.41
2023-01-21T01:14:00.881Z,70.35
2023-01-21T01:16:27.713Z,70.75
2023-01-21T01:18:55.716Z,70.25
2023-01-21T01:21:22.946Z,70.30
2023-01-21T01:23:52.333Z,70.07
2023-01-21T01:26:21.077Z,69.80
2023-01-21T01:28:48.397Z,69.73
2023-01-21T01:31:17.841Z,69.78
2023-01-21T01:33:45.340Z,69.13
2023-01-21T01:36:15.090Z,69.49
2023-01-21T01:38:42.548Z,69.24
2023-01-21T01:41:15.007Z,69.58
2023-01-21T01:43:55.752Z,69.19
2023-01-21T01:46:23.674Z,69.25
2023-01-21T01:49:06.853Z,69.50
2023-01-21T01:51:42.741Z,69.19
2023-01-21T01:54:11.991Z,69.40
2023-01-21T01:56:43.282Z,69.31
2023-01-21T01:59:10.550Z,69.27
2023-01-21T02:01:37.811Z,69.27
2023-01-21T02:04:10.131Z,69.04
2023-01-21T02:06:38.463Z,69.23
2023-01-21T02:09:05.502Z,69.54
2023-01-21T02:11:32.232Z,69.65
2023-01-21T02:13:59.887Z,69.67
2023-01-21T02:16:46.251Z,70.80
2023-01-21T02:19:31.667Z,70.62
2023-01-21T02:22:04.448Z,70.68
2023-01-21T02:24:49.788Z,70.72
2023-01-21T02:27:49.983Z,70.06
2023-01-21T02:30:46.561Z,70.94
2023-01-21T02:33:25.301Z,70.27
2023-01-21T02:36:26.167Z,69.89
2023-01-21T02:39:26.719Z,70.47
2023-01-21T02:42:27.308Z,70.48
2023-01-21T02:45:05.552Z,70.54
2023-01-21T02:48:06.339Z,70.34
2023-01-21T02:50:54.539Z,70.17
2023-01-21T02:53:27.681Z,70.19
2023-01-21T02:55:56.150Z,70.48
2023-01-21T02:58:28.980Z,69.97
2023-01-21T03:01:03.872Z,70.75
2023-01-21T03:03:57.999Z,70.42
2023-01-21T03:06:38.955Z,70.68
2023-01-21T03:09:15.009Z,70.37
2023-01-21T03:11:49.246Z,71.16
2023-01-21T03:14:41.912Z,70.72
2023-01-21T03:17:16.996Z,70.59
2023-01-21T03:19:53.796Z,71.04
2023-01-21T03:22:26.081Z,71.25
2023-01-21T03:24:55.678Z,70.84
2023-01-21T03:27:26.913Z,71.27
2023-01-21T03:29:58.812Z,70.99
2023-01-21T03:32:28.688Z,71.39
2023-01-21T03:34:56.865Z,71.38
2023-01-21T03:37:46.811Z,71.47
2023-01-21T03:40:27.509Z,71.82
2023-01-21T03:42:56.307Z,72.40
2023-01-21T03:45:50.680Z,71.26
2023-01-21T03:49:19.118Z,71.53
2023-01-21T03:51:51.438Z,71.65
2023-01-21T03:54:18.302Z,71.20
2023-01-21T03:56:44.989Z,72.15
2023-01-21T03:59:11.647Z,72.24
2023-01-21T04:01:39.536Z,72.05
2023-01-21T04:04:06.481Z,71.77
2023-01-21T04:06:33.614Z,71.68
2023-01-21T04:09:00.353Z,72.55
2023-01-21T04:11:26.962Z,72.51
2023-01-21T04:13:53.607Z,71.58
2023-01-21T04:16:20.339Z,72.54
2023-01-21T04:18:47.678Z,72.79
2023-01-21T04:21:14.839Z,72.85
2023-01-21T04:23:41.523Z,74.04
2023-01-21T04:26:08.231Z,74.73
2023-01-21T04:28:34.910Z,75.14
2023-01-21T04:31:01.698Z,75.00
2023-01-21T04:33:28.423Z,74.83
2023-01-21T04:36:01.153Z,76.16
2023-01-21T04:38:27.927Z,76.17
2023-01-21T04:40:54.571Z,75.95
2023-01-21T04:43:21.457Z,75.83
2023-01-21T04:45:49.994Z,76.28
2023-01-21T04:48:17.669Z,76.24
2023-01-21T04:50:45.743Z,76.18
2023-01-21T04:53:12.453Z,76.68
2023-01-21T04:55:39.117Z,76.00
2023-01-21T04:58:06.006Z,76.24
2023-01-21T05:00:32.670Z,76.28
2023-01-21T05:02:59.335Z,75.53
2023-01-21T05:05:25.998Z,76.29
2023-01-21T05:07:54.003Z,75.50
2023-01-21T05:10:21.204Z,75.86
2023-01-21T05:12:48.556Z,75.69
2023-01-21T05:15:15.431Z,75.35
2023-01-21T05:17:42.508Z,75.09
2023-01-21T05:20:09.975Z,74.57
2023-01-21T05:22:36.660Z,74.26
2023-01-21T05:25:03.806Z,73.86
2023-01-21T05:27:30.514Z,74.04
2023-01-21T05:29:57.305Z,73.90
2023-01-21T05:32:24.243Z,74.12
2023-01-21T05:34:50.951Z,73.89
2023-01-21T05:37:17.718Z,73.22
2023-01-21T05:39:44.627Z,73.61
2023-01-21T05:42:11.246Z,73.51
2023-01-21T05:44:37.927Z,73.28
2023-01-21T05:47:04.738Z,73.41
2023-01-21T05:49:31.432Z,74.01
2023-01-21T05:51:58.054Z,74.15
2023-01-21T05:54:24.804Z,73.83
2023-01-21T05:56:51.565Z,73.75
2023-01-21T05:59:18.187Z,73.38
2023-01-21T06:01:44.848Z,73.81
2023-01-21T06:04:11.487Z,73.64
2023-01-21T06:06:38.160Z,73.06
2023-01-21T06:09:04.852Z,72.99
2023-01-21T06:11:31.548Z,72.95
2023-01-21T06:13:58.388Z,73.06
2023-01-21T06:16:24.986Z,72.82
2023-01-21T06:18:51.620Z,72.78
2023-01-21T06:21:18.207Z,72.03
2023-01-21T06:23:44.887Z,72.27
2023-01-21T06:26:11.531Z,72.35
2023-01-21T06:28:38.224Z,72.21
2023-01-21T06:31:05.053Z,72.31
2023-01-21T06:33:31.759Z,72.56
2023-01-21T06:35:58.442Z,72.44
2023-01-21T06:38:25.097Z,71.79
2023-01-21T06:40:51.738Z,71.63
2023-01-21T06:43:18.581Z,72.11
2023-01-21T06:45:45.354Z,72.21
2023-01-21T06:48:11.935Z,72.01
2023-01-21T06:50:38.718Z,71.85
2023-01-21T06:53:05.349Z,72.47
2023-01-21T06:55:32.010Z,72.11
2023-01-21T06:57:58.682Z,71.56
2023-01-21T07:00:25.346Z,71.93
2023-01-21T07:02:59.361Z,71.56
2023-01-21T07:05:26.922Z,71.69
2023-01-21T07:07:55.722Z,71.56
2023-01-21T07:10:23.612Z,72.11
2023-01-21T07:12:50.583Z,71.67
2023-01-21T07:15:17.647Z,72.43
2023-01-21T07:17:44.693Z,71.49
2023-01-21T07:20:14.345Z,71.24
2023-01-21T07:22:40.944Z,71.32
2023-01-21T07:25:08.015Z,71.33
2023-01-21T07:27:34.635Z,71.07
2023-01-21T07:30:01.403Z,71.46
2023-01-21T07:32:28.184Z,71.15
2023-01-21T07:34:54.819Z,71.35
2023-01-21T07:37:21.418Z,70.58
2023-01-21T07:39:48.040Z,70.90
2023-01-21T07:42:14.729Z,70.83
2023-01-21T07:44:42.688Z,70.86
2023-01-21T07:47:10.468Z,70.57
2023-01-21T07:49:37.535Z,70.40
2023-01-21T07:52:04.436Z,70.54
2023-01-21T07:54:31.068Z,70.43
2023-01-21T07:56:58.073Z,70.51
2023-01-21T07:59:24.775Z,70.32
2023-01-21T08:01:51.692Z,70.17
2023-01-21T08:04:18.418Z,69.93
2023-01-21T08:06:45.126Z,69.27
2023-01-21T08:09:11.828Z,69.31
2023-01-21T08:11:38.506Z,68.87
2023-01-21T08:14:05.661Z,68.43
2023-01-21T08:16:32.355Z,68.58
2023-01-21T08:18:59.193Z,67.90
2023-01-21T08:21:26.202Z,67.92
2023-01-21T08:23:52.846Z,67.89
2023-01-21T08:26:19.553Z,67.93
2023-01-21T08:28:46.153Z,67.75
2023-01-21T08:31:13.648Z,67.27
2023-01-21T08:33:40.728Z,67.13
2023-01-21T08:36:08.626Z,66.50
2023-01-21T08:38:35.783Z,66.33
2023-01-21T08:41:02.430Z,65.83
2023-01-21T08:43:29.453Z,65.30
2023-01-21T08:45:57.261Z,65.03
2023-01-21T08:48:24.262Z,64.74
2023-01-21T08:50:51.038Z,64.40
2023-01-21T08:53:17.841Z,64.15
2023-01-21T08:55:44.593Z,64.22
2023-01-21T08:58:11.984Z,64.27
2023-01-21T09:00:38.780Z,64.37
2023-01-21T09:03:05.425Z,64.58
2023-01-21T09:05:32.153Z,64.61
2023-01-21T09:07:58.926Z,64.07
2023-01-21T09:10:48.916Z,64.25
2023-01-21T09:13:16.266Z,64.08
2023-01-21T09:15:43.795Z,63.61
2023-01-21T09:18:11.540Z,64.03
2023-01-21T09:20:39.748Z,63.17
2023-01-21T09:23:26.625Z,62.71
2023-01-21T09:26:07.763Z,62.80
2023-01-21T09:28:37.536Z,61.90
2023-01-21T09:31:06.706Z,61.68
2023-01-21T09:33:36.431Z,62.15
2023-01-21T09:36:06.167Z,61.04
2023-01-21T09:38:33.790Z,61.68
2023-01-21T09:41:18.885Z,60.91
2023-01-21T09:44:27.425Z,60.30
2023-01-21T09:47:09.068Z,60.16
2023-01-21T09:49:43.573Z,60.14
2023-01-21T09:52:42.943Z,59.24
2023-01-21T09:55:15.687Z,58.55
2023-01-21T09:58:24.006Z,58.45
2023-01-21T10:01:10.685Z,57.52
2023-01-21T10:03:52.793Z,56.64
2023-01-21T10:06:38.535Z,56.26
2023-01-21T10:09:45.457Z,55.59
2023-01-21T10:12:36.763Z,55.04
2023-01-21T10:15:15.881Z,55.28
2023-01-21T10:17:58.054Z,54.15
2023-01-21T10:20:30.141Z,53.15
2023-01-21T10:23:13.499Z,51.62
2023-01-21T10:25:41.074Z,48.64
2023-01-21T10:28:20.972Z,46.64
2023-01-21T10:30:51.827Z,45.03
2023-01-21T10:33:25.094Z,43.32
2023-01-21T10:36:07.275Z,42.28
2023-01-21T10:38:40.915Z,43.36
2023-01-21T10:41:22.797Z,44.85
2023-01-21T10:43:58.539Z,46.65
2023-01-21T10:46:37.552Z,49.49
2023-01-21T10:49:36.653Z,52.41
2023-01-21T10:52:06.529Z,53.96
2023-01-21T10:54:45.187Z,55.31
2023-01-21T10:57:30.983Z,55.71
2023-01-21T11:00:02.457Z,56.82
2023-01-21T11:02:33.769Z,57.13
2023-01-21T11:05:03.925Z,57.33
2023-01-21T11:07:39.861Z,56.91
2023-01-21T11:10:07.701Z,56.16
2023-01-21T11:12:34.696Z,56.17
2023-01-21T11:15:07.696Z,56.64
2023-01-21T11:17:37.790Z,56.35
2023-01-21T11:20:16.977Z,57.33
2023-01-21T11:22:45.539Z,57.07
2023-01-21T11:25:26.381Z,57.08
2023-01-21T11:27:53.035Z,57.03
2023-01-21T11:30:51.999Z,56.08
2023-01-21T11:33:18.831Z,56.76
2023-01-21T11:35:46.072Z,57.74
2023-01-21T11:38:33.111Z,58.00
2023-01-21T11:41:16.091Z,57.66
2023-01-21T11:43:52.209Z,57.61
2023-01-21T11:46:30.227Z,56.37
2023-01-21T11:49:12.268Z,56.80
2023-01-21T11:51:41.095Z,56.00
2023-01-21T11:54:13.460Z,55.82
2023-01-21T11:56:45.363Z,56.52
2023-01-21T11:59:50.841Z,55.96
2023-01-21T12:02:31.178Z,55.99
2023-01-21T12:05:04.889Z,55.92
2023-01-21T12:07:35.232Z,55.59
2023-01-21T12:10:20.110Z,54.70
2023-01-21T12:13:14.201Z,52.06
2023-01-21T12:16:06.002Z,51.90
2023-01-21T12:18:54.617Z,51.16
2023-01-21T12:21:42.500Z,51.92
2023-01-21T12:24:34.213Z,52.01
2023-01-21T12:27:09.208Z,50.49
2023-01-21T12:29:48.538Z,50.07
2023-01-21T12:32:23.623Z,49.83
2023-01-21T12:35:08.230Z,49.09
2023-01-21T12:38:03.777Z,49.98
2023-01-21T12:40:40.078Z,50.23
2023-01-21T12:43:26.351Z,50.03
2023-01-21T12:46:03.398Z,50.38
2023-01-21T12:48:34.959Z,50.88
2023-01-21T12:51:08.197Z,51.55
2023-01-21T12:53:45.129Z,51.15
2023-01-21T12:56:18.018Z,51.20
2023-01-21T12:58:57.016Z,50.65
2023-01-21T13:01:41.653Z,50.16
2023-01-21T13:04:20.965Z,50.73
2023-01-21T13:06:56.125Z,51.47
2023-01-21T13:09:44.029Z,51.93
2023-01-21T13:12:26.235Z,51.44
2023-01-21T13:15:00.910Z,52.04
2023-01-21T13:17:35.387Z,53.46
2023-01-21T13:20:13.627Z,53.40
2023-01-21T13:22:47.206Z,55.25
2023-01-21T13:25:24.472Z,55.11
2023-01-21T13:27:51.042Z,55.47
2023-01-21T13:30:29.109Z,55.43
2023-01-21T13:33:17.085Z,55.19
2023-01-21T13:36:22.677Z,55.63
2023-01-21T13:39:10.004Z,55.26
2023-01-21T13:41:55.123Z,55.23
2023-01-21T13:44:54.592Z,56.27
2023-01-21T13:47:31.965Z,55.03
2023-01-21T13:50:17.955Z,55.65
2023-01-21T13:53:17.669Z,56.19
2023-01-21T13:56:02.939Z,55.56
2023-01-21T13:58:43.114Z,56.90
2023-01-21T14:01:18.750Z,56.94
2023-01-21T14:03:50.446Z,55.72
2023-01-21T14:06:26.915Z,56.28
2023-01-21T14:08:59.437Z,56.55
2023-01-21T14:11:33.318Z,57.20
2023-01-21T14:14:09.948Z,58.13
2023-01-21T14:16:48.808Z,57.99
2023-01-21T14:19:48.560Z,57.87
2023-01-21T14:22:36.583Z,58.04
2023-01-21T14:25:30.975Z,58.40
2023-01-21T14:28:06.428Z,58.30
2023-01-21T14:30:47.939Z,58.68
2023-01-21T14:33:23.552Z,58.50
2023-01-21T14:36:05.036Z,58.64
2023-01-21T14:38:40.711Z,58.36
2023-01-21T14:41:09.839Z,57.93
2023-01-21T14:43:36.603Z,57.85
2023-01-21T14:46:23.115Z,58.12
2023-01-21T14:48:58.409Z,58.89
2023-01-21T14:51:28.920Z,58.29
2023-01-21T14:54:13.026Z,58.12
2023-01-21T14:56:39.906Z,58.83
2023-01-21T14:59:25.580Z,58.82
2023-01-21T15:02:03.274Z,58.26
2023-01-21T15:04:40.241Z,58.66
2023-01-21T15:07:13.046Z,57.92
2023-01-21T15:09:43.983Z,57.86
2023-01-21T15:12:22.535Z,58.52
2023-01-21T15:14:50.020Z,58.96
2023-01-21T15:17:44.783Z,58.87
2023-01-21T15:20:44.746Z,59.59
2023-01-21T15:23:29.535Z,59.39
2023-01-21T15:26:03.153Z,58.71
2023-01-21T15:28:59.607Z,59.05
2023-01-21T15:31:26.248Z,59.26
2023-01-21T15:34:00.711Z,58.79
2023-01-21T15:36:27.504Z,59.55
2023-01-21T15:39:02.329Z,58.55
2023-01-21T15:41:38.528Z,58.98
2023-01-21T15:44:37.685Z,58.79
2023-01-21T15:47:29.431Z,59.48
2023-01-21T15:50:23.622Z,59.22
2023-01-21T15:53:06.722Z,59.65
2023-01-21T15:55:45.553Z,59.27
2023-01-21T15:59:00.652Z,59.53
2023-01-21T16:01:37.260Z,58.73
2023-01-21T16:04:40.806Z,58.81
2023-01-21T16:07:34.089Z,59.89
2023-01-21T16:10:17.906Z,59.48
2023-01-21T16:13:14.519Z,59.08
2023-01-21T16:15:49.962Z,58.92
2023-01-21T16:18:22.878Z,58.47
2023-01-21T16:20:53.254Z,59.40
2023-01-21T16:23:22.853Z,59.39
2023-01-21T16:25:52.703Z,59.33
2023-01-21T16:28:21.372Z,58.90
2023-01-21T16:31:06.201Z,58.62
2023-01-21T16:33:32.900Z,58.98
2023-01-21T16:36:05.826Z,58.88
2023-01-21T16:38:34.163Z,59.23
2023-01-21T16:41:06.889Z,59.01
2023-01-21T16:43:48.979Z,58.79
2023-01-21T16:46:18.291Z,58.45
2023-01-21T16:48:50.247Z,59.18
2023-01-21T16:51:23.648Z,58.94
2023-01-21T16:53:53.909Z,58.66
2023-01-21T16:56:29.389Z,59.36
2023-01-21T16:58:56.379Z,58.71
2023-01-21T17:01:26.422Z,58.78
2023-01-21T17:03:53.332Z,58.41
2023-01-21T17:06:25.791Z,58.98
2023-01-21T17:09:05.008Z,59.25
2023-01-21T17:11:32.869Z,59.45
2023-01-21T17:14:07.505Z,58.96
2023-01-21T17:16:36.875Z,58.90
2023-01-21T17:19:08.264Z,59.11
2023-01-21T17:21:44.062Z,58.84
2023-01-21T17:24:23.773Z,58.81
2023-01-21T17:26:54.026Z,58.78
2023-01-21T17:29:26.291Z,58.49
2023-01-21T17:32:26.835Z,58.38
2023-01-21T17:35:08.952Z,58.81
2023-01-21T17:37:55.227Z,58.38
2023-01-21T17:40:35.455Z,58.68
2023-01-21T17:43:30.121Z,58.18
2023-01-21T17:45:57.976Z,58.88
2023-01-21T17:48:48.864Z,58.45
2023-01-21T17:51:15.639Z,58.12
2023-01-21T17:53:49.512Z,58.79
2023-01-21T17:56:34.536Z,58.56
2023-01-21T17:59:04.121Z,59.13
2023-01-21T18:01:31.210Z,58.99
2023-01-21T18:03:57.928Z,59.29
2023-01-21T18:06:27.713Z,59.24
2023-01-21T18:08:57.038Z,59.49
2023-01-21T18:11:23.786Z,58.81
2023-01-21T18:13:51.346Z,59.35
2023-01-21T18:16:18.123Z,58.83
2023-01-21T18:18:45.091Z,58.62
2023-01-21T18:21:18.891Z,58.54
2023-01-21T18:23:46.355Z,59.21
2023-01-21T18:26:26.346Z,58.47
2023-01-21T18:28:53.175Z,58.88
2023-01-21T18:31:20.141Z,59.35
2023-01-21T18:33:46.916Z,59.31
2023-01-21T18:36:13.537Z,59.07
2023-01-21T18:38:40.245Z,59.92
2023-01-21T18:41:08.860Z,59.97
2023-01-21T18:43:35.640Z,59.48
2023-01-21T18:46:02.514Z,59.83
2023-01-21T18:48:31.046Z,60.51
2023-01-21T18:50:57.741Z,59.54
2023-01-21T18:53:25.557Z,60.12
2023-01-21T18:55:55.833Z,59.40
2023-01-21T18:58:22.577Z,59.64
2023-01-21T19:00:49.581Z,59.31
2023-01-21T19:03:16.604Z,59.24
2023-01-21T19:05:47.555Z,59.96
2023-01-21T19:08:21.600Z,59.36
2023-01-21T19:10:48.218Z,59.75
2023-01-21T19:13:14.853Z,59.24
2023-01-21T19:15:41.893Z,60.40
2023-01-21T19:18:13.418Z,59.85
2023-01-21T19:20:41.520Z,59.79
2023-01-21T19:23:15.581Z,60.11
2023-01-21T19:25:46.758Z,61.08
2023-01-21T19:28:13.387Z,60.47
2023-01-21T19:30:44.966Z,60.95
2023-01-21T19:33:12.371Z,60.91
2023-01-21T19:35:42.538Z,60.72
2023-01-21T19:38:16.147Z,60.85
2023-01-21T19:40:42.965Z,61.10
2023-01-21T19:43:14.731Z,60.81
2023-01-21T19:45:41.878Z,60.39
2023-01-21T19:48:17.388Z,61.14
2023-01-21T19:50:44.325Z,60.35
2023-01-21T19:53:15.245Z,60.37
2023-01-21T19:55:43.523Z,60.15
2023-01-21T19:58:15.632Z,60.68
2023-01-21T20:00:42.262Z,60.17
2023-01-21T20:03:12.765Z,60.28
2023-01-21T20:05:39.882Z,60.19
2023-01-21T20:08:09.409Z,60.67
2023-01-21T20:10:36.168Z,61.21
2023-01-21T20:13:02.829Z,60.81
2023-01-21T20:15:34.207Z,60.88
2023-01-21T20:18:03.231Z,60.98
2023-01-21T20:20:33.435Z,60.69
2023-01-21T20:23:01.165Z,60.27
2023-01-21T20:25:37.230Z,59.94
2023-01-21T20:28:14.705Z,59.69
2023-01-21T20:30:41.367Z,59.51
2023-01-21T20:33:13.648Z,60.15
2023-01-21T20:35:40.621Z,59.86
2023-01-21T20:38:13.249Z,60.16
2023-01-21T20:40:40.285Z,59.62
2023-01-21T20:43:07.403Z,60.24
2023-01-21T20:45:48.722Z,59.75
2023-01-21T20:48:18.750Z,60.17
2023-01-21T20:50:46.353Z,59.77
2023-01-21T20:53:13.063Z,60.26
2023-01-21T20:55:40.578Z,60.13
2023-01-21T20:58:07.460Z,60.01
2023-01-21T21:00:35.006Z,59.88
2023-01-21T21:03:02.383Z,60.13
2023-01-21T21:05:29.178Z,60.50
2023-01-21T21:07:55.861Z,59.81
2023-01-21T21:10:30.813Z,60.09
2023-01-21T21:12:58.805Z,60.10
2023-01-21T21:15:33.876Z,59.65
2023-01-21T21:18:01.311Z,59.57
2023-01-21T21:20:34.124Z,59.44
2023-01-21T21:23:01.362Z,59.86
2023-01-21T21:25:30.327Z,59.88
2023-01-21T21:27:57.059Z,59.97
2023-01-21T21:30:27.579Z,59.82
2023-01-21T21:32:56.573Z,59.26
2023-01-21T21:35:27.365Z,59.13
2023-01-21T21:37:55.960Z,58.91
2023-01-21T21:40:25.027Z,59.19
2023-01-21T21:43:10.297Z,59.39
2023-01-21T21:45:37.515Z,58.80
2023-01-21T21:48:23.462Z,58.90
2023-01-21T21:50:57.528Z,58.96
2023-01-21T21:53:24.366Z,59.45
2023-01-21T21:55:51.034Z,59.58
2023-01-21T21:58:17.766Z,59.32
2023-01-21T22:00:44.744Z,59.47
2023-01-21T22:03:12.570Z,59.26
2023-01-21T22:05:39.202Z,59.53
2023-01-21T22:08:06.344Z,60.00
2023-01-21T22:10:32.972Z,60.21
2023-01-21T22:12:59.613Z,60.55
2023-01-21T22:15:26.213Z,60.96
2023-01-21T22:17:52.820Z,60.86
2023-01-21T22:20:19.551Z,61.04
2023-01-21T22:22:46.156Z,60.92
2023-01-21T22:25:13.203Z,60.90
2023-01-21T22:27:39.844Z,60.76
2023-01-21T22:30:07.093Z,61.17
2023-01-21T22:32:33.700Z,61.08
2023-01-21T22:35:00.325Z,60.39
2023-01-21T22:37:26.952Z,60.80
2023-01-21T22:39:53.683Z,61.05
2023-01-21T22:42:20.444Z,60.95
2023-01-21T22:44:47.144Z,61.02
2023-01-21T22:47:13.753Z,61.23
2023-01-21T22:49:40.495Z,61.05
2023-01-21T22:52:07.412Z,60.93
2023-01-21T22:54:34.168Z,60.81
2023-01-21T22:57:00.829Z,61.32
2023-01-21T22:59:27.436Z,61.06
2023-01-21T23:01:54.215Z,61.00
2023-01-21T23:04:20.843Z,61.43
2023-01-21T23:06:48.631Z,61.46
2023-01-21T23:09:18.335Z,61.13
2023-01-21T23:11:45.134Z,61.23
2023-01-21T23:14:12.021Z,61.48
2023-01-21T23:16:39.218Z,61.70
2023-01-21T23:19:05.905Z,61.32
2023-01-21T23:21:32.987Z,61.35
2023-01-21T23:23:59.634Z,60.75
2023-01-21T23:26:26.270Z,60.84
2023-01-21T23:28:57.495Z,61.32
2023-01-21T23:31:25.082Z,61.27
2023-01-21T23:33:53.098Z,61.29
2023-01-21T23:36:20.258Z,61.18
2023-01-21T23:38:46.934Z,60.63
2023-01-21T23:41:16.981Z,61.16
2023-01-21T23:43:43.810Z,61.22
2023-01-21T23:46:16.548Z,61.22
2023-01-21T23:48:43.503Z,61.19
2023-01-21T23:51:12.733Z,61.63
2023-01-21T23:53:39.731Z,61.06
2023-01-21T23:56:10.422Z,61.25
2023-01-21T23:58:37.147Z,60.79
